Millmont, Pennsylvania
Current Conditions -  °F | °C
As of 4:53 AM on Monday 26 Jan 2015 (Local Time) from KSEG Reporting Station
Light Snow Light Snow  
Wind Chill:   Ceiling: 1800
Heat Index: 20°   Visibility: 1.2mi
Dew Point: 15°   Wind: 12mph
Humidity: 81%   Direction: 40°NE
Pressure: 29.92"   Gusts: NA
Location:  40.89°N, 77.14°W
Report Text: KSEG 260953Z AUTO 04010KT 1 1/4SM -SN OVC018 M07/M09 A2992 RMK AO2 SLP137 P0001 T10671094
Loading
Personal Weather Stations






























Interactive Weather Map New forecast layout! Learn more

10-Day Weather Forecast

Advertisements
Track Severe Weather on mobile